Time;durP1;ratioP1;P1;durP2;ratioP2;P2;SDS_P1;SDS_P2;PMS_P1;PMS_P2;Temp;Humidity;BMP_temperature;BMP_pressure;BME280_temperature;BME280_humidity;BME280_pressure;Samples;Min_cycle;Max_cycle;Signal;HPM_P1;HPM_P2
2024/04/05 00:02:01;;;;;;;6.47;3.03;;;;;;;;;;4995534;28;20058;-48
2024/04/05 00:04:28;;;;;;;7.30;3.05;;;;;;;;;;4995409;28;20035;-47
2024/04/05 00:06:54;;;;;;;8.98;3.03;;;;;;;;;;4995539;28;20030;-44
2024/04/05 00:09:20;;;;;;;5.63;3.75;;;;;;;;;;4995060;28;20026;-53
2024/04/05 00:11:46;;;;;;;6.60;2.67;;;;;;;;;;4995436;28;20027;-48
2024/04/05 00:14:12;;;;;;;5.38;2.80;;;;;;;;;;4995772;28;20170;-46
2024/04/05 00:16:38;;;;;;;8.93;3.03;;;;;;;;;;4995119;28;20026;-47
2024/04/05 00:19:04;;;;;;;8.70;3.50;;;;;;;;;;4995075;28;20062;-50
2024/04/05 00:21:30;;;;;;;6.30;3.22;;;;;;;;;;4995154;28;20034;-46
2024/04/05 00:24:00;;;;;;;9.52;3.15;;;;;;;;;;4995091;28;20026;-47
2024/04/05 00:26:26;;;;;;;6.85;3.28;;;;;;;;;;4995178;28;20034;-51
2024/04/05 00:28:52;;;;;;;9.75;2.85;;;;;;;;;;4994791;28;20022;-47
2024/04/05 00:31:18;;;;;;;6.70;3.00;;;;;;;;;;4994901;28;20528;-47
2024/04/05 00:33:44;;;;;;;8.77;2.90;;;;;;;;;;4977324;28;20050;-49
2024/04/05 00:36:11;;;;;;;8.20;3.20;;;;;;;;;;4995086;28;20027;-51
2024/04/05 00:38:37;;;;;;;10.25;2.78;;;;;;;;;;4994628;28;20078;-49
2024/04/05 00:41:03;;;;;;;6.80;3.05;;;;;;;;;;4994834;28;20117;-46
2024/04/05 00:43:29;;;;;;;8.65;3.35;;;;;;;;;;4994581;28;20042;-49
2024/04/05 00:45:55;;;;;;;6.60;2.83;;;;;;;;;;4994822;28;20457;-47
2024/04/05 00:48:22;;;;;;;6.78;2.60;;;;;;;;;;4977230;28;20031;-47
2024/04/05 00:50:49;;;;;;;9.43;3.30;;;;;;;;;;4994919;28;20049;-50
2024/04/05 00:53:26;;;;;;;13.30;2.95;;;;;;;;;;4994643;28;20022;-49
2024/04/05 00:55:53;;;;;;;8.30;2.70;;;;;;;;;;4994822;28;20034;-46
2024/04/05 00:58:20;;;;;;;11.30;3.25;;;;;;;;;;4977212;28;20122;-50
2024/04/05 01:00:46;;;;;;;9.75;2.95;;;;;;;;;;4995969;28;20066;-49
2024/04/05 01:03:12;;;;;;;10.48;3.58;;;;;;;;;;4995313;28;20033;-51
2024/04/05 01:05:39;;;;;;;7.45;3.30;;;;;;;;;;4975876;28;20157;-52
2024/04/05 01:08:05;;;;;;;7.57;2.63;;;;;;;;;;4994017;28;20177;-47
2024/04/05 01:10:31;;;;;;;7.78;2.30;;;;;;;;;;4994266;28;20397;-45
2024/04/05 01:13:02;;;;;;;7.18;2.78;;;;;;;;;;4994235;28;20030;-48
2024/04/05 01:15:28;;;;;;;8.27;2.88;;;;;;;;;;4994256;28;20025;-47
2024/04/05 01:17:54;;;;;;;9.90;3.13;;;;;;;;;;4993778;28;20109;-44
2024/04/05 01:20:21;;;;;;;8.52;2.30;;;;;;;;;;4994233;28;20042;-45
2024/04/05 01:22:53;;;;;;;10.25;2.78;;;;;;;;;;4994583;28;20073;-49
2024/04/05 01:25:22;;;;;;;6.53;2.60;;;;;;;;;;4976764;28;20073;-46
2024/04/05 01:27:48;;;;;;;6.22;2.72;;;;;;;;;;4993951;28;20033;-48
2024/04/05 01:30:14;;;;;;;9.52;2.75;;;;;;;;;;4994137;28;20023;-48
2024/04/05 01:32:39;;;;;;;11.68;4.05;;;12.70;99.90;;;;;;4976565;28;20026;-49
2024/04/05 01:35:05;;;;;;;8.40;3.05;;;12.70;99.90;;;;;;4994042;28;20019;-46
2024/04/05 01:37:31;;;;;;;8.70;3.20;;;12.70;99.90;;;;;;4993683;28;20077;-46
2024/04/05 01:39:56;;;;;;;10.13;3.47;;;12.70;99.90;;;;;;4993748;28;20041;-48
2024/04/05 01:42:22;;;;;;;9.45;3.35;;;12.70;99.90;;;;;;4994004;28;20101;-46
2024/04/05 01:44:47;;;;;;;13.95;3.03;;;12.60;99.90;;;;;;4993752;28;20033;-47
2024/04/05 01:47:13;;;;;;;4.50;2.58;;;12.60;99.90;;;;;;4992276;28;20023;-48
2024/04/05 01:49:38;;;;;;;11.77;3.80;;;12.60;99.90;;;;;;4993327;28;20126;-49
2024/04/05 01:52:04;;;;;;;8.95;2.72;;;12.60;99.90;;;;;;4993489;28;20161;-48
2024/04/05 01:54:32;;;;;;;8.70;2.42;;;12.60;99.90;;;;;;4993500;28;20029;-50
2024/04/05 01:56:57;;;;;;;7.72;2.78;;;12.70;99.90;;;;;;4993645;28;20023;-45
2024/04/05 01:59:23;;;;;;;3.10;2.30;;;12.60;99.90;;;;;;4993271;28;20030;-49
2024/04/05 02:01:48;;;;;;;13.10;3.05;;;12.60;99.90;;;;;;4994930;28;20037;-46
2024/04/05 02:04:14;;;;;;;11.15;3.53;;;12.70;99.90;;;;;;4994991;28;20065;-48
2024/04/05 02:06:40;;;;;;;18.88;3.65;;;12.70;99.90;;;;;;4996662;28;20033;-51
2024/04/05 02:09:06;;;;;;;8.60;2.45;;;12.70;99.90;;;;;;5001405;28;20423;-48
2024/04/05 02:11:32;;;;;;;10.07;3.25;;;12.70;99.90;;;;;;4995288;28;20022;-50
2024/04/05 02:13:57;;;;;;;14.52;3.03;;;12.70;99.90;;;;;;4993701;28;20026;-46
2024/04/05 02:16:23;;;;;;;11.23;3.42;;;12.80;99.90;;;;;;4976205;28;20018;-46
2024/04/05 02:18:48;;;;;;;10.63;2.75;;;12.80;99.90;;;;;;4993776;28;20089;-48
2024/04/05 02:21:14;;;;;;;16.70;3.00;;;12.70;99.90;;;;;;4993284;28;20034;-47
2024/04/05 02:23:39;;;;;;;4.93;2.72;;;12.70;99.90;;;;;;4992902;28;20117;-48
2024/04/05 02:26:05;;;;;;;7.82;2.95;;;12.70;99.90;;;;;;4993006;28;20478;-47
2024/04/05 02:28:30;;;;;;;12.15;2.83;;;12.70;99.90;;;;;;4992394;28;20033;-49
2024/04/05 02:30:56;;;;;;;8.88;2.63;;;12.60;99.90;;;;;;4991450;28;20160;-50
2024/04/05 02:33:22;;;;;;;10.07;2.88;;;12.60;99.90;;;;;;4993083;28;20429;-50
2024/04/05 02:35:47;;;;;;;11.05;3.47;;;12.70;99.90;;;;;;4992579;28;20029;-49
2024/04/05 02:38:14;;;;;;;6.13;2.88;;;12.60;99.90;;;;;;4992779;28;20049;-48
2024/04/05 02:40:39;;;;;;;9.93;2.53;;;12.60;99.90;;;;;;4993365;28;20027;-47
2024/04/05 02:43:05;;;;;;;9.68;3.08;;;12.60;99.90;;;;;;4992517;28;20109;-46
2024/04/05 02:45:30;;;;;;;5.90;2.60;;;12.60;99.90;;;;;;4992715;28;20057;-48
2024/04/05 02:47:56;;;;;;;7.63;3.05;;;12.60;99.90;;;;;;4992217;28;20045;-47
2024/04/05 02:50:21;;;;;;;6.55;3.13;;;12.60;99.90;;;;;;4992565;28;20022;-47
2024/04/05 02:52:47;;;;;;;9.85;2.83;;;12.60;99.90;;;;;;4992614;28;20101;-49
2024/04/05 02:55:12;;;;;;;7.03;2.97;;;12.60;99.90;;;;;;4993484;28;20027;-46
2024/04/05 02:57:38;;;;;;;11.32;2.85;;;12.60;99.90;;;;;;4992655;28;20018;-47
2024/04/05 03:00:05;;;;;;;13.82;3.25;;;12.50;99.90;;;;;;4991969;28;20105;-52
2024/04/05 03:02:30;;;;;;;12.13;3.42;;;12.60;99.90;;;;;;4992038;28;20022;-48
2024/04/05 03:04:56;;;;;;;13.40;2.97;;;12.50;99.90;;;;;;4992519;28;20026;-51
2024/04/05 03:07:21;;;;;;;4.03;2.63;;;12.50;99.90;;;;;;4992035;28;20053;-48
2024/04/05 03:09:47;;;;;;;9.25;2.45;;;12.50;99.90;;;;;;4992290;28;20077;-46
2024/04/05 03:12:12;;;;;;;7.38;2.42;;;12.50;99.90;;;;;;4992494;28;20034;-52
2024/04/05 03:14:38;;;;;;;7.57;2.65;;;12.50;99.90;;;;;;4974744;28;20425;-47
2024/04/05 03:17:03;;;;;;;7.72;2.78;;;12.50;99.90;;;;;;4991772;28;20019;-48
2024/04/05 03:19:29;;;;;;;6.93;2.88;;;12.60;99.90;;;;;;4991723;28;20031;-49
2024/04/05 03:21:54;;;;;;;8.32;2.95;;;12.60;99.90;;;;;;4992139;28;20064;-45
2024/04/05 03:24:20;;;;;;;9.50;2.20;;;12.60;99.90;;;;;;4991918;28;20026;-49
2024/04/05 03:26:45;;;;;;;5.32;1.95;;;12.60;99.90;;;;;;4992096;28;20026;-46
2024/04/05 03:29:11;;;;;;;14.63;4.07;;;12.60;99.90;;;;;;4994906;28;20053;-47
2024/04/05 03:31:37;;;;;;;10.48;2.85;;;12.60;99.90;;;;;;4996104;28;20105;-48
2024/04/05 03:34:03;;;;;;;10.38;2.78;;;12.60;99.90;;;;;;4995878;28;20034;-47
2024/04/05 03:36:28;;;;;;;6.22;2.35;;;12.60;99.90;;;;;;4996226;28;20367;-52
2024/04/05 03:38:56;;;;;;;8.82;2.60;;;12.60;99.90;;;;;;4995741;28;20033;-49
2024/04/05 03:41:22;;;;;;;8.30;2.50;;;12.60;99.90;;;;;;4996048;28;20030;-47
2024/04/05 03:43:47;;;;;;;8.50;2.92;;;12.60;99.90;;;;;;4996021;28;20038;-48
2024/04/05 03:46:13;;;;;;;9.63;2.75;;;12.60;99.90;;;;;;4978343;28;20378;-49
2024/04/05 03:48:38;;;;;;;10.57;2.95;;;12.60;99.90;;;;;;4995457;28;20030;-51
2024/04/05 03:51:04;;;;;;;5.82;2.75;;;12.60;99.90;;;;;;4995774;28;20033;-51
2024/04/05 03:53:29;;;;;;;8.23;2.70;;;12.60;99.90;;;;;;4995613;28;20022;-49
2024/04/05 03:55:55;;;;;;;8.70;3.25;;;12.60;99.90;;;;;;4995666;28;20023;-50
2024/04/05 03:58:22;;;;;;;20.30;2.55;;;12.50;99.90;;;;;;4996671;28;20027;-47
2024/04/05 04:00:51;;;;;;;10.50;2.90;;;12.50;99.90;;;;;;4996094;28;20038;-50
2024/04/05 04:03:17;;;;;;;8.05;2.92;;;12.40;99.90;;;;;;4995435;28;20042;-47
2024/04/05 04:05:44;;;;;;;6.78;3.80;;;12.40;99.90;;;;;;4995494;28;20041;-46
2024/04/05 04:08:10;;;;;;;6.60;2.50;;;12.40;99.90;;;;;;4993861;28;20026;-49
2024/04/05 04:10:35;;;;;;;12.30;3.03;;;12.40;99.90;;;;;;4995310;28;20022;-47
2024/04/05 04:13:01;;;;;;;9.45;3.30;;;12.40;99.90;;;;;;4995293;28;20054;-47
2024/04/05 04:15:26;;;;;;;3.35;2.63;;;12.30;99.90;;;;;;4994059;28;20148;-48
2024/04/05 04:17:52;;;;;;;14.30;2.90;;;12.30;99.90;;;;;;4994681;28;20033;-50
2024/04/05 04:20:19;;;;;;;5.93;2.58;;;12.30;99.90;;;;;;4995102;28;20031;-47
2024/04/05 04:22:44;;;;;;;5.72;3.03;;;12.20;99.90;;;;;;4995596;28;20370;-46
2024/04/05 04:25:11;;;;;;;10.10;2.78;;;12.20;99.90;;;;;;4995196;28;20022;-50
2024/04/05 04:27:37;;;;;;;9.52;3.15;;;12.30;99.90;;;;;;4995037;28;20022;-47
2024/04/05 04:30:04;;;;;;;5.75;2.70;;;12.20;99.90;;;;;;4994780;28;20505;-47
2024/04/05 04:32:33;;;;;;;8.95;3.15;;;12.20;99.90;;;;;;4994934;28;20444;-48
2024/04/05 04:34:59;;;;;;;8.48;3.13;;;12.30;99.90;;;;;;4994804;28;20082;-47
2024/04/05 04:37:24;;;;;;;16.05;3.33;;;12.30;99.90;;;;;;4994785;28;20502;-48
2024/04/05 04:39:50;;;;;;;4.65;2.65;;;12.30;99.90;;;;;;4994673;28;20037;-50
2024/04/05 04:42:17;;;;;;;5.07;2.97;;;12.20;99.90;;;;;;4994756;28;20057;-47
2024/04/05 04:44:42;;;;;;;10.48;2.85;;;12.30;99.90;;;;;;4994742;28;20027;-46
2024/04/05 04:47:08;;;;;;;10.88;2.47;;;12.20;99.90;;;;;;4994655;28;20022;-47
2024/04/05 04:49:34;;;;;;;9.45;2.92;;;12.30;99.90;;;;;;4994386;28;20479;-48
2024/04/05 04:52:00;;;;;;;7.60;3.17;;;12.30;99.90;;;;;;4994581;28;20101;-50
2024/04/05 04:54:27;;;;;;;12.32;3.60;;;12.40;99.90;;;;;;4994583;28;20546;-47
2024/04/05 04:56:53;;;;;;;9.95;3.97;;;12.40;99.90;;;;;;4994574;28;20031;-50
2024/04/05 04:59:19;;;;;;;7.88;3.65;;;12.30;99.90;;;;;;4994343;28;20222;-46
2024/04/05 05:01:44;;;;;;;10.48;3.55;;;12.30;99.90;;;;;;4994447;28;20045;-49
2024/04/05 05:04:12;;;;;;;8.25;3.20;;;12.40;99.90;;;;;;4994447;28;20030;-47
2024/04/05 05:06:38;;;;;;;12.43;2.90;;;12.40;99.90;;;;;;4994365;28;20034;-47
2024/04/05 05:09:03;;;;;;;7.30;3.13;;;12.40;99.90;;;;;;4993984;28;20052;-46
2024/04/05 05:11:29;;;;;;;6.88;3.20;;;12.40;99.90;;;;;;4994446;28;20097;-53
2024/04/05 05:13:54;;;;;;;8.00;3.22;;;12.40;99.90;;;;;;4992940;28;20026;-44
2024/04/05 05:16:20;;;;;;;7.90;2.83;;;12.30;99.90;;;;;;4994165;28;20093;-52
2024/04/05 05:18:45;;;;;;;8.30;2.85;;;12.40;99.90;;;;;;4993516;28;20032;-49
2024/04/05 05:21:11;;;;;;;8.18;3.15;;;12.40;99.90;;;;;;4994079;28;20026;-49
2024/04/05 05:23:36;;;;;;;6.30;3.30;;;12.40;99.90;;;;;;4994044;28;20549;-47
2024/04/05 05:26:06;;;;;;;9.18;2.95;;;12.50;99.90;;;;;;4994035;28;20045;-46
2024/04/05 05:28:32;;;;;;;9.95;3.65;;;12.60;99.90;;;;;;4993713;28;20026;-48
2024/04/05 05:30:58;;;;;;;8.70;3.13;;;12.50;99.90;;;;;;4993938;28;20026;-50
2024/04/05 05:33:23;;;;;;;7.35;3.03;;;12.60;99.90;;;;;;5023106;23;20916;-47
2024/04/05 05:35:49;;;;;;;7.72;3.08;;;12.70;99.90;;;;;;5052793;28;20162;-47
2024/04/05 05:38:14;;;;;;;17.15;4.60;;;12.70;99.90;;;;;;5034298;28;20036;-49
2024/04/05 05:40:40;;;;;;;5.32;2.95;;;12.80;99.90;;;;;;5053525;28;20055;-50
2024/04/05 05:43:05;;;;;;;8.50;3.47;;;13.00;99.90;;;;;;5053316;28;20100;-47
2024/04/05 05:45:31;;;;;;;7.38;3.10;;;13.10;99.90;;;;;;5053311;28;20074;-48
2024/04/05 05:47:57;;;;;;;12.40;3.33;;;13.20;99.90;;;;;;5034845;28;20031;-49
2024/04/05 05:50:24;;;;;;;7.80;2.75;;;13.20;99.90;;;;;;5052635;28;20046;-49
2024/04/05 05:52:51;;;;;;;6.47;3.22;;;13.10;99.90;;;;;;5035511;28;20021;-48
2024/04/05 05:55:17;;;;;;;9.25;3.40;;;13.10;99.90;;;;;;5034993;28;20028;-46
2024/04/05 05:57:43;;;;;;;7.55;2.88;;;13.10;99.90;;;;;;5053265;28;20396;-47
2024/04/05 06:00:13;;;;;;;8.57;2.90;;;13.10;99.90;;;;;;5052607;28;20031;-50
2024/04/05 06:02:39;;;;;;;5.80;3.13;;;13.10;99.90;;;;;;5052865;28;20028;-52
2024/04/05 06:05:10;;;;;;;7.65;3.25;;;13.10;99.90;;;;;;5051558;28;20025;-47
2024/04/05 06:07:36;;;;;;;12.13;3.38;;;13.10;99.90;;;;;;5034878;28;20024;-48
2024/04/05 06:10:02;;;;;;;16.40;2.90;;;13.10;99.90;;;;;;5052552;28;20029;-47
2024/04/05 06:12:29;;;;;;;5.38;2.42;;;13.00;99.90;;;;;;5052832;28;20051;-50
2024/04/05 06:14:55;;;;;;;7.07;2.80;;;13.10;99.90;;;;;;5052743;28;20036;-46
2024/04/05 06:17:25;;;;;;;12.88;3.53;;;13.20;99.90;;;;;;5052574;28;20025;-48
2024/04/05 06:19:54;;;;;;;6.45;2.58;;;13.20;99.90;;;;;;5034828;28;20400;-48
2024/04/05 06:22:25;;;;;;;13.32;4.05;;;13.20;99.90;;;;;;5053095;28;20388;-49
2024/04/05 06:24:51;;;;;;;10.68;2.97;;;13.30;99.90;;;;;;5052517;28;20025;-48
2024/04/05 06:27:18;;;;;;;12.20;2.65;;;13.30;99.90;;;;;;5052603;28;20033;-47
2024/04/05 06:29:54;;;;;;;10.35;3.38;;;13.40;99.90;;;;;;5052571;28;20025;-47
2024/04/05 06:32:20;;;;;;;12.07;2.95;;;13.50;99.90;;;;;;5052457;28;20096;-46
2024/04/05 06:34:45;;;;;;;6.57;2.72;;;13.70;99.90;;;;;;5050920;28;20102;-49
2024/04/05 06:37:12;;;;;;;8.88;2.60;;;13.90;99.90;;;;;;5034456;28;20025;-48
2024/04/05 06:39:40;;;;;;;12.20;2.50;;;14.00;99.90;;;;;;5034484;28;20116;-49
2024/04/05 06:42:08;;;;;;;7.75;2.92;;;14.10;99.90;;;;;;5052069;28;20488;-48
2024/04/05 06:44:35;;;;;;;5.82;2.28;;;14.20;99.90;;;;;;5052040;28;20451;-49
2024/04/05 06:47:04;;;;;;;9.77;2.60;;;14.50;99.90;;;;;;5052200;28;20036;-49
2024/04/05 06:49:32;;;;;;;7.38;2.88;;;15.40;99.90;;;;;;5051572;28;20029;-49
2024/04/05 06:52:00;;;;;;;6.50;2.40;;;16.40;99.90;;;;;;5051785;28;20496;-51
2024/04/05 06:54:26;;;;;;;7.22;2.17;;;17.10;99.90;;;;;;5051645;28;20078;-49
2024/04/05 06:56:52;;;;;;;8.05;2.30;;;17.30;99.90;;;;;;5051655;28;20029;-47
2024/04/05 06:59:17;;;;;;;4.65;2.17;;;17.50;99.90;;;;;;5051625;28;20476;-47
2024/04/05 07:01:43;;;;;;;7.47;2.42;;;17.60;99.90;;;;;;5050100;28;20230;-48
2024/04/05 07:04:09;;;;;;;4.32;2.67;;;17.80;99.90;;;;;;5051109;28;20044;-45
2024/04/05 07:06:34;;;;;;;5.32;1.85;;;18.10;99.90;;;;;;5051551;28;20032;-51
2024/04/05 07:09:03;;;;;;;5.38;2.30;;;18.40;99.90;;;;;;5051413;28;20025;-50
2024/04/05 07:11:31;;;;;;;7.82;1.98;;;;;;;;;;5051660;28;20017;-46
2024/04/05 07:13:57;;;;;;;6.53;1.88;;;19.10;99.90;;;;;;5033518;28;20025;-49
2024/04/05 07:16:23;;;;;;;4.72;2.30;;;19.40;99.90;;;;;;5051460;28;20021;-47
2024/04/05 07:18:49;;;;;;;5.63;2.60;;;19.60;99.90;;;;;;5051016;28;20404;-50
2024/04/05 07:21:16;;;;;;;3.80;1.92;;;19.80;99.90;;;;;;5017191;28;20066;-53
2024/04/05 07:23:41;;;;;;;7.20;1.90;;;20.00;99.90;;;;;;5051214;28;20031;-47
2024/04/05 07:26:10;;;;;;;6.82;2.10;;;20.30;99.90;;;;;;5051425;28;20104;-48
2024/04/05 07:28:35;;;;;;;8.18;2.20;;;20.30;99.90;;;;;;5051032;28;20033;-47
2024/04/05 07:31:01;;;;;;;4.93;2.25;;;20.30;99.90;;;;;;5051208;28;20096;-50
2024/04/05 07:33:26;;;;;;;5.28;1.83;;;20.50;99.90;;;;;;5049747;28;20029;-47
2024/04/05 07:35:55;;;;;;;3.83;1.77;;;;;;;;;;5050009;28;20025;-50
2024/04/05 07:38:21;;;;;;;4.68;2.22;;;;;;;;;;5051010;28;20029;-47
2024/04/05 07:40:49;;;;;;;4.03;1.92;;;;;;;;;;5051151;28;20022;-47
2024/04/05 07:43:16;;;;;;;4.22;1.80;;;;;;;;;;5051140;28;20032;-50
2024/04/05 07:45:41;;;;;;;4.72;1.73;;;;;;;;;;5051059;28;20381;-51
2024/04/05 07:48:08;;;;;;;7.70;2.97;;;;;;;;;;5050712;28;20496;-52
2024/04/05 07:50:34;;;;;;;3.00;1.50;;;;;;;;;;5033138;28;20021;-49
2024/04/05 07:53:00;;;;;;;2.75;1.60;;;;;;;;;;5051144;28;20025;-46
2024/04/05 07:55:26;;;;;;;4.43;1.65;;;;;;;;;;5051302;28;20021;-54
2024/04/05 07:57:53;;;;;;;6.35;1.77;;;;;;;;;;5051410;28;20033;-48
2024/04/05 08:00:20;;;;;;;6.00;1.83;;;;;;;;;;5051342;28;20529;-48
2024/04/05 08:02:54;;;;;;;5.47;2.00;;;;;;;;;;5051350;28;20029;-51
2024/04/05 08:05:22;;;;;;;2.55;1.60;;;;;;;;;;5033297;28;20104;-49
2024/04/05 08:07:48;;;;;;;7.32;2.97;;;18.40;99.90;;;;;;5032977;28;20063;-44
2024/04/05 08:10:13;;;;;;;7.57;2.63;;;18.30;99.90;;;;;;5051156;28;20056;-48
2024/04/05 08:12:40;;;;;;;8.50;1.83;;;18.00;99.90;;;;;;5049642;28;20087;-49
2024/04/05 08:15:10;;;;;;;5.75;1.92;;;17.90;99.90;;;;;;5054265;28;20032;-48
2024/04/05 08:17:36;;;;;;;7.80;1.52;;;17.90;99.90;;;;;;5054481;28;20108;-48
2024/04/05 08:20:04;;;;;;;3.63;1.50;;;;;;;;;;5036878;28;20028;-47
2024/04/05 08:22:31;;;;;;;4.20;1.58;;;;;;;;;;5054804;28;20075;-47
2024/04/05 08:25:07;;;;;;;3.70;1.55;;;;;;;;;;5054837;28;20039;-49
2024/04/05 08:27:37;;;;;;;4.53;1.70;;;;;;;;;;5054412;28;20024;-49
2024/04/05 08:30:05;;;;;;;3.67;1.88;;;;;;;;;;5054425;28;20033;-53
2024/04/05 08:32:31;;;;;;;3.30;1.20;;;;;;;;;;5054485;28;20021;-48
2024/04/05 08:35:06;;;;;;;3.40;1.67;;;;;;;;;;5054356;28;20484;-52
2024/04/05 08:37:31;;;;;;;4.53;1.87;;;;;;;;;;5054106;28;20488;-51
2024/04/05 08:39:58;;;;;;;2.10;1.30;;;;;;;;;;5054018;28;20071;-50
2024/04/05 08:42:24;;;;;;;4.80;1.73;;;;;;;;;;5054363;28;20033;-53
2024/04/05 08:44:50;;;;;;;4.53;1.33;;;;;;;;;;5054150;28;20104;-51
2024/04/05 08:47:20;;;;;;;5.32;1.65;;;;;;;;;;5035974;28;20029;-50
2024/04/05 08:49:49;;;;;;;6.13;1.50;;;;;;;;;;5053817;28;20025;-51
2024/04/05 08:52:15;;;;;;;4.28;1.25;;;;;;;;;;5053998;28;20021;-51
2024/04/05 08:54:41;;;;;;;4.55;1.20;;;;;;;;;;5053933;28;20064;-49
2024/04/05 08:57:09;;;;;;;5.70;1.40;;;;;;;;;;5053736;28;20025;-51
2024/04/05 08:59:35;;;;;;;5.68;1.48;;;;;;;;;;5053594;28;20021;-51
2024/04/05 09:02:01;;;;;;;2.92;1.23;;;;;;;;;;5035852;28;20036;-52
2024/04/05 09:04:28;;;;;;;5.47;1.50;;;;;;;;;;5053642;28;20079;-51
2024/04/05 09:06:54;;;;;;;3.28;1.23;;;;;;;;;;5035899;28;20024;-49
2024/04/05 09:09:26;;;;;;;4.07;1.45;;;;;;;;;;5053124;28;20029;-50
2024/04/05 09:12:00;;;;;;;10.40;2.03;;;;;;;;;;5035586;28;20036;-46
2024/04/05 09:14:26;;;;;;;6.93;2.10;;;;;;;;;;5053563;28;20021;-48
2024/04/05 09:16:54;;;;;;;6.25;1.70;;;;;;;;;;5053183;28;20024;-48
2024/04/05 09:19:25;;;;;;;5.88;1.63;;;;;;;;;;5053014;28;20103;-47
2024/04/05 09:21:53;;;;;;;5.00;1.50;;;;;;;;;;5053880;28;20029;-48
2024/04/05 09:24:20;;;;;;;3.25;1.73;;;;;;;;;;5053522;28;20393;-45
2024/04/05 09:26:46;;;;;;;5.15;1.27;;;;;;;;;;5052500;28;20399;-46
2024/04/05 09:29:13;;;;;;;4.18;1.50;;;20.40;99.90;;;;;;5052908;28;20029;-47
2024/04/05 09:31:39;;;;;;;3.25;1.63;;;20.50;99.90;;;;;;5054136;28;20500;-48
2024/04/05 09:34:10;;;;;;;3.03;1.50;;;20.50;99.90;;;;;;5051968;28;20064;-49
2024/04/05 09:36:37;;;;;;;5.75;1.58;;;20.60;99.90;;;;;;5039652;28;20425;-54
2024/04/05 09:39:08;;;;;;;3.55;1.50;;;21.00;99.90;;;;;;5039657;28;20025;-51
2024/04/05 09:41:35;;;;;;;4.00;1.33;;;21.50;99.90;;;;;;5015747;28;20460;-56
2024/04/05 09:44:03;;;;;;;5.85;1.52;;;21.90;99.90;;;;;;5051115;28;20462;-50
2024/04/05 09:46:29;;;;;;;5.65;1.60;;;22.00;99.90;;;;;;5053104;28;20108;-49
2024/04/05 09:48:55;;;;;;;2.60;1.30;;;21.60;99.90;;;;;;5053012;28;20104;-47
2024/04/05 09:51:26;;;;;;;6.10;1.65;;;21.80;99.90;;;;;;5034988;28;20025;-48
2024/04/05 09:53:52;;;;;;;7.50;1.52;;;21.50;99.90;;;;;;5036377;28;20025;-47
2024/04/05 09:56:22;;;;;;;5.10;2.30;;;21.30;99.90;;;;;;5028174;28;20392;-48
2024/04/05 09:58:50;;;;;;;5.10;1.50;;;;;;;;;;5027053;28;20021;-49
2024/04/05 10:01:16;;;;;;;4.45;1.20;;;20.70;99.90;;;;;;5052234;28;20056;-48
2024/04/05 10:03:45;;;;;;;4.35;1.80;;;20.50;99.90;;;;;;5052657;28;20060;-46
2024/04/05 10:06:15;;;;;;;4.07;1.38;;;20.40;99.90;;;;;;5034711;28;20550;-49
2024/04/05 10:08:41;;;;;;;2.33;1.33;;;20.30;99.90;;;;;;5051976;28;20036;-50
2024/04/05 10:11:13;;;;;;;2.70;1.30;;;20.40;99.90;;;;;;5052700;28;20024;-50
2024/04/05 10:13:40;;;;;;;3.30;1.20;;;20.40;99.90;;;;;;5018295;28;20030;-48
2024/04/05 10:16:07;;;;;;;4.85;1.50;;;20.30;99.90;;;;;;5052602;28;20045;-49
2024/04/05 10:18:41;;;;;;;3.08;1.30;;;20.30;99.90;;;;;;5034604;28;20032;-48
2024/04/05 10:21:09;;;;;;;5.75;1.02;;;20.20;99.90;;;;;;5052990;28;20020;-51
2024/04/05 10:23:36;;;;;;;5.47;1.27;;;20.30;99.90;;;;;;5050834;28;20032;-49
2024/04/05 10:26:03;;;;;;;6.57;1.52;;;20.40;99.90;;;;;;5052462;28;20111;-49
2024/04/05 10:28:29;;;;;;;8.52;1.30;;;20.40;99.90;;;;;;5052197;28;20036;-49
2024/04/05 10:30:55;;;;;;;6.53;1.20;;;20.40;99.90;;;;;;5052372;28;20300;-48
2024/04/05 10:33:21;;;;;;;5.75;1.77;;;19.90;99.90;;;;;;5031836;28;20052;-50
2024/04/05 10:35:48;;;;;;;3.80;1.35;;;20.40;99.90;;;;;;5043742;28;20056;-48
2024/04/05 10:38:16;;;;;;;8.30;1.20;;;20.80;99.90;;;;;;5052619;28;20027;-53
2024/04/05 10:40:44;;;;;;;4.38;1.38;;;20.00;99.90;;;;;;5028818;28;20033;-50
2024/04/05 10:43:11;;;;;;;4.07;1.20;;;20.40;99.90;;;;;;5041755;28;20033;-46
2024/04/05 10:45:38;;;;;;;6.75;1.55;;;20.50;99.90;;;;;;5034452;28;20025;-48
2024/04/05 10:48:04;;;;;;;7.07;1.38;;;20.60;99.90;;;;;;5051478;28;20287;-47
2024/04/05 10:50:34;;;;;;;4.18;1.20;;;20.60;99.90;;;;;;5052058;28;20017;-54
2024/04/05 10:53:00;;;;;;;4.15;1.25;;;20.60;99.90;;;;;;5052267;28;20448;-52
2024/04/05 10:55:26;;;;;;;2.75;1.30;;;20.60;99.90;;;;;;5051842;28;20072;-52
2024/04/05 10:57:52;;;;;;;16.98;10.38;;;20.60;99.90;;;;;;5040144;28;20080;-49
2024/04/05 11:00:19;;;;;;;24.85;14.65;;;20.60;99.90;;;;;;5052549;28;20021;-50
2024/04/05 11:02:44;;;;;;;60.47;30.80;;;20.60;99.90;;;;;;5040386;28;20029;-55
2024/04/05 11:05:13;;;;;;;4.60;1.75;;;20.60;99.90;;;;;;5050572;28;20438;-48
2024/04/05 11:07:41;;;;;;;5.45;1.30;;;20.60;99.90;;;;;;5049727;28;20037;-53
2024/04/05 11:10:17;;;;;;;3.50;1.15;;;20.70;99.90;;;;;;5050946;28;20044;-49
2024/04/05 11:12:44;;;;;;;3.42;0.80;;;20.70;99.90;;;;;;5050781;28;20032;-49
2024/04/05 11:15:10;;;;;;;3.50;1.25;;;20.70;99.90;;;;;;5051773;28;20498;-48
2024/04/05 11:17:36;;;;;;;4.68;1.25;;;20.50;99.90;;;;;;5036054;28;20464;-50
2024/04/05 11:20:05;;;;;;;3.85;1.00;;;;;;;;;;5051119;28;20061;-48
2024/04/05 11:22:31;;;;;;;1.27;0.98;;;21.00;99.90;;;;;;5055106;28;20036;-54
2024/04/05 11:24:56;;;;;;;6.75;1.30;;;20.80;99.90;;;;;;5062861;28;20098;-53
2024/04/05 11:27:22;;;;;;;2.80;1.20;;;20.80;99.90;;;;;;5032577;28;20017;-55
2024/04/05 11:29:48;;;;;;;4.25;1.38;;;20.60;99.90;;;;;;5032423;28;20369;-54
2024/04/05 11:32:25;;;;;;;4.80;1.50;;;20.60;99.90;;;;;;5050709;28;20024;-58
2024/04/05 11:34:50;;;;;;;2.55;0.75;;;20.50;99.90;;;;;;5052664;28;20024;-56
2024/04/05 11:37:16;;;;;;;2.03;0.95;;;20.40;99.90;;;;;;5071251;28;20052;-53
2024/04/05 11:39:44;;;;;;;4.50;1.00;;;20.40;99.90;;;;;;5071022;22;20417;-49
2024/04/05 11:42:10;;;;;;;2.67;1.05;;;20.30;99.90;;;;;;5025246;28;20026;-52
2024/04/05 11:44:35;;;;;;;2.63;1.10;;;20.20;99.90;;;;;;5028985;28;20021;-53
2024/04/05 11:47:01;;;;;;;1.50;1.15;;;20.20;99.90;;;;;;5029025;28;20092;-52
2024/04/05 11:49:27;;;;;;;3.85;1.25;;;20.20;99.90;;;;;;5030640;28;20423;-50
2024/04/05 11:51:52;;;;;;;2.17;1.27;;;20.20;99.90;;;;;;5034920;28;20079;-52
2024/04/05 11:54:18;;;;;;;2.80;0.80;;;20.10;99.90;;;;;;5034642;28;20025;-54
2024/04/05 11:56:43;;;;;;;6.30;1.20;;;20.30;99.90;;;;;;5029665;28;20038;-49
2024/04/05 11:59:09;;;;;;;5.35;1.10;;;20.40;99.90;;;;;;5014967;28;20100;-53
2024/04/05 12:01:35;;;;;;;3.85;1.92;;;20.60;99.90;;;;;;5014809;28;20067;-54
2024/04/05 12:04:00;;;;;;;5.53;1.75;;;20.70;99.90;;;;;;5014305;28;20517;-52
2024/04/05 12:06:26;;;;;;;1.45;0.88;;;20.80;99.90;;;;;;5014878;28;20058;-54
2024/04/05 12:08:51;;;;;;;5.78;1.23;;;20.90;99.90;;;;;;5014069;28;20137;-54
2024/04/05 12:11:17;;;;;;;2.50;0.93;;;20.90;99.90;;;;;;5013326;28;20037;-49
2024/04/05 12:13:46;;;;;;;1.85;1.17;;;21.00;99.90;;;;;;5013961;28;20032;-52
2024/04/05 12:16:11;;;;;;;2.47;1.20;;;21.00;99.90;;;;;;4994315;28;20027;-53
2024/04/05 12:18:38;;;;;;;3.65;1.20;;;20.80;99.90;;;;;;5006075;28;20034;-55
2024/04/05 12:21:04;;;;;;;5.57;1.63;;;20.70;99.90;;;;;;5015136;28;20080;-50
2024/04/05 12:23:30;;;;;;;6.10;0.90;;;20.60;99.90;;;;;;5014788;28;20382;-52
2024/04/05 12:25:58;;;;;;;2.70;0.98;;;20.60;99.90;;;;;;5032735;28;20033;-50
2024/04/05 12:28:24;;;;;;;1.75;0.93;;;20.60;99.90;;;;;;5026950;28;20105;-51
2024/04/05 12:30:49;;;;;;;3.30;1.05;;;20.80;99.90;;;;;;5014725;28;20116;-50
2024/04/05 12:33:15;;;;;;;3.60;1.38;;;20.90;99.90;;;;;;5014459;28;20026;-47
2024/04/05 12:35:42;;;;;;;5.78;1.17;;;20.90;99.90;;;;;;5013788;28;20037;-49
2024/04/05 12:38:10;;;;;;;4.15;1.10;;;20.90;99.90;;;;;;5014783;28;20168;-50
2024/04/05 12:40:46;;;;;;;2.33;1.20;;;21.00;99.90;;;;;;5014719;28;20509;-46
2024/04/05 12:43:11;;;;;;;5.47;1.52;;;21.00;99.90;;;;;;5013963;28;20040;-50
2024/04/05 12:45:37;;;;;;;3.53;1.25;;;20.90;99.90;;;;;;5015910;28;20112;-51
2024/04/05 12:48:03;;;;;;;2.10;0.90;;;20.90;99.90;;;;;;5014433;28;20111;-50
2024/04/05 12:50:29;;;;;;;2.13;1.10;;;20.90;99.90;;;;;;5012987;28;20497;-51
2024/04/05 12:52:54;;;;;;;2.70;1.15;;;20.90;99.90;;;;;;5014231;28;20061;-49
2024/04/05 12:55:20;;;;;;;4.78;1.20;;;20.90;99.90;;;;;;5012679;28;20037;-49
2024/04/05 12:57:45;;;;;;;2.25;1.23;;;20.90;99.90;;;;;;5015396;28;20026;-51
2024/04/05 13:00:13;;;;;;;2.08;1.20;;;20.90;99.90;;;;;;5012776;28;20436;-53
2024/04/05 13:02:39;;;;;;;1.20;1.10;;;20.90;99.90;;;;;;5014382;28;20109;-47
2024/04/05 13:05:05;;;;;;;2.63;1.20;;;21.00;99.90;;;;;;5015110;28;20320;-51
2024/04/05 13:07:31;;;;;;;5.15;1.00;;;20.90;99.90;;;;;;5014233;28;20116;-51